CSC8632 ZUUU-ZULS
Flight info
| Callsign | CSC8632 |
|---|---|
| Flight time | 1h 58m |
| Altitude | 32100 |
| Route | MUMGO9W MUMGO B213 LXA |
| Aircraft | A319/M-SDE3FGHIRWY/LB1 |
Departure
| Time | 2026-04-22 11:40 |
|---|---|
| Airport | Chengdu Shuangliu International Airport (ZUUU) |
Arrival
| Time | 2026-04-22 13:38 |
|---|---|
| Airport | Lhasa Gonggar International Airport (ZULS) |
| Time | Latitude | Longitude | Altitude | Speed | Heading |
|---|---|---|---|---|---|
| 2026-04-22 11:15 | 30.56950 | 103.94947 | 1619 ft | 0 kts | 22° |
| 2026-04-22 11:29 | 30.56950 | 103.94946 | 1646 ft | 1 kts | 22° |
| 2026-04-22 11:29 | 30.56927 | 103.94936 | 1646 ft | 4 kts | 16° |
| 2026-04-22 11:30 | 30.56901 | 103.94930 | 1646 ft | 4 kts | 1° |
| 2026-04-22 11:30 | 30.56876 | 103.94934 | 1646 ft | 4 kts | 317° |
| 2026-04-22 11:30 | 30.56869 | 103.94946 | 1646 ft | 1 kts | 292° |
| 2026-04-22 11:30 | 30.56868 | 103.94947 | 1646 ft | 0 kts | 292° |
| 2026-04-22 11:32 | 30.56870 | 103.94942 | 1646 ft | 2 kts | 292° |
| 2026-04-22 11:32 | 30.56878 | 103.94921 | 1646 ft | 4 kts | 293° |
| 2026-04-22 11:33 | 30.56891 | 103.94885 | 1646 ft | 6 kts | 291° |
| 2026-04-22 11:33 | 30.56906 | 103.94838 | 1646 ft | 7 kts | 291° |
| 2026-04-22 11:33 | 30.56927 | 103.94779 | 1646 ft | 9 kts | 292° |
| 2026-04-22 11:33 | 30.56952 | 103.94709 | 1646 ft | 10 kts | 292° |
| 2026-04-22 11:34 | 30.56973 | 103.94626 | 1646 ft | 11 kts | 268° |
| 2026-04-22 11:34 | 30.56909 | 103.94583 | 1646 ft | 12 kts | 193° |
| 2026-04-22 11:34 | 30.56870 | 103.94510 | 1646 ft | 12 kts | 270° |
| 2026-04-22 11:34 | 30.56824 | 103.94432 | 1646 ft | 13 kts | 200° |
| 2026-04-22 11:35 | 30.56735 | 103.94394 | 1646 ft | 14 kts | 201° |
| 2026-04-22 11:35 | 30.56640 | 103.94347 | 1646 ft | 15 kts | 205° |
| 2026-04-22 11:35 | 30.56541 | 103.94303 | 1646 ft | 16 kts | 201° |
| 2026-04-22 11:35 | 30.56434 | 103.94249 | 1646 ft | 17 kts | 204° |
| 2026-04-22 11:36 | 30.56331 | 103.94198 | 1646 ft | 12 kts | 203° |
| 2026-04-22 11:36 | 30.56321 | 103.94118 | 1646 ft | 11 kts | 291° |
| 2026-04-22 11:36 | 30.56358 | 103.94033 | 1646 ft | 13 kts | 315° |
| 2026-04-22 11:36 | 30.56423 | 103.94030 | 1646 ft | 0 kts | 22° |
| 2026-04-22 11:37 | 30.56429 | 103.94033 | 1646 ft | 1 kts | 24° |
| 2026-04-22 11:37 | 30.56434 | 103.94036 | 1646 ft | 0 kts | 24° |
| 2026-04-22 11:39 | 30.56454 | 103.94046 | 1646 ft | 16 kts | 24° |
| 2026-04-22 11:39 | 30.56731 | 103.94176 | 1646 ft | 70 kts | 22° |
| 2026-04-22 11:39 | 30.57350 | 103.94467 | 1646 ft | 122 kts | 22° |
| 2026-04-22 11:39 | 30.58294 | 103.94907 | 1705 ft | 162 kts | 21° |
| 2026-04-22 11:40 | 30.59321 | 103.95358 | 2303 ft | 158 kts | 20° |
| 2026-04-22 11:40 | 30.60397 | 103.95686 | 2849 ft | 159 kts | 357° |
| 2026-04-22 11:40 | 30.61445 | 103.95319 | 3344 ft | 160 kts | 333° |
| 2026-04-22 11:40 | 30.62512 | 103.94742 | 3621 ft | 180 kts | 333° |
| 2026-04-22 11:41 | 30.63719 | 103.94093 | 3874 ft | 203 kts | 334° |
| 2026-04-22 11:41 | 30.65111 | 103.93347 | 3989 ft | 238 kts | 334° |
| 2026-04-22 11:41 | 30.66713 | 103.92487 | 4014 ft | 261 kts | 335° |
| 2026-04-22 11:41 | 30.68374 | 103.91599 | 4008 ft | 265 kts | 335° |
| 2026-04-22 11:42 | 30.70053 | 103.90705 | 4003 ft | 265 kts | 335° |
| 2026-04-22 11:42 | 30.71752 | 103.89801 | 4270 ft | 272 kts | 335° |
| 2026-04-22 11:42 | 30.73445 | 103.88835 | 5219 ft | 272 kts | 327° |
| 2026-04-22 11:42 | 30.74778 | 103.87272 | 6066 ft | 279 kts | 303° |
| 2026-04-22 11:43 | 30.75442 | 103.85139 | 6879 ft | 286 kts | 278° |
| 2026-04-22 11:43 | 30.75290 | 103.82862 | 7737 ft | 291 kts | 253° |
| 2026-04-22 11:43 | 30.74332 | 103.80805 | 8623 ft | 294 kts | 230° |
| 2026-04-22 11:43 | 30.72941 | 103.79046 | 9458 ft | 298 kts | 226° |
| 2026-04-22 11:44 | 30.71501 | 103.77280 | 10233 ft | 303 kts | 226° |
| 2026-04-22 11:44 | 30.70041 | 103.75494 | 10984 ft | 306 kts | 227° |
| 2026-04-22 11:44 | 30.68570 | 103.73688 | 11712 ft | 312 kts | 227° |
| 2026-04-22 11:44 | 30.67099 | 103.71708 | 11924 ft | 335 kts | 237° |
| 2026-04-22 11:45 | 30.66020 | 103.69227 | 12156 ft | 353 kts | 253° |
| 2026-04-22 11:45 | 30.65567 | 103.66422 | 12713 ft | 358 kts | 268° |
| 2026-04-22 11:45 | 30.65775 | 103.63546 | 13418 ft | 359 kts | 283° |
| 2026-04-22 11:45 | 30.66425 | 103.60768 | 14075 ft | 361 kts | 286° |
| 2026-04-22 11:46 | 30.67104 | 103.57959 | 14741 ft | 362 kts | 286° |
| 2026-04-22 11:46 | 30.67796 | 103.55101 | 15407 ft | 363 kts | 286° |
| 2026-04-22 11:46 | 30.68481 | 103.52274 | 16073 ft | 364 kts | 287° |
| 2026-04-22 11:46 | 30.69157 | 103.49487 | 16736 ft | 365 kts | 287° |
| 2026-04-22 11:47 | 30.69844 | 103.46645 | 17424 ft | 365 kts | 287° |
| 2026-04-22 11:47 | 30.70530 | 103.43806 | 18110 ft | 365 kts | 287° |
| 2026-04-22 11:47 | 30.71215 | 103.40972 | 18770 ft | 365 kts | 287° |
| 2026-04-22 11:47 | 30.71902 | 103.38123 | 19344 ft | 366 kts | 287° |
| 2026-04-22 11:48 | 30.72585 | 103.35271 | 19649 ft | 366 kts | 286° |
| 2026-04-22 11:48 | 30.73264 | 103.32426 | 19755 ft | 365 kts | 287° |
| 2026-04-22 11:48 | 30.73948 | 103.29582 | 19781 ft | 365 kts | 287° |
| 2026-04-22 11:48 | 30.74635 | 103.26731 | 19984 ft | 368 kts | 287° |
| 2026-04-22 11:49 | 30.75323 | 103.23862 | 20543 ft | 369 kts | 287° |
| 2026-04-22 11:49 | 30.76011 | 103.20987 | 21118 ft | 370 kts | 286° |
| 2026-04-22 11:49 | 30.76698 | 103.18107 | 21666 ft | 371 kts | 286° |
| 2026-04-22 11:49 | 30.77391 | 103.15207 | 22137 ft | 372 kts | 286° |
| 2026-04-22 11:50 | 30.78084 | 103.12304 | 22646 ft | 373 kts | 286° |
| 2026-04-22 11:50 | 30.78777 | 103.09394 | 23150 ft | 375 kts | 286° |
| 2026-04-22 11:50 | 30.79475 | 103.06470 | 23634 ft | 375 kts | 285° |
| 2026-04-22 11:50 | 30.80153 | 103.03534 | 24010 ft | 376 kts | 282° |
| 2026-04-22 11:51 | 30.80530 | 103.00513 | 24387 ft | 380 kts | 275° |
| 2026-04-22 11:51 | 30.80546 | 102.97432 | 24769 ft | 383 kts | 270° |
| 2026-04-22 11:51 | 30.80488 | 102.94336 | 25141 ft | 385 kts | 270° |
| 2026-04-22 11:51 | 30.80433 | 102.91207 | 25463 ft | 387 kts | 269° |
| 2026-04-22 11:52 | 30.80395 | 102.89089 | 25716 ft | 389 kts | 269° |
| 2026-04-22 11:52 | 30.80321 | 102.84922 | 26206 ft | 391 kts | 269° |
| 2026-04-22 11:52 | 30.80282 | 102.82781 | 26476 ft | 392 kts | 269° |
| 2026-04-22 11:52 | 30.80205 | 102.78547 | 26996 ft | 395 kts | 269° |
| 2026-04-22 11:53 | 30.80165 | 102.76439 | 27222 ft | 396 kts | 268° |
| 2026-04-22 11:53 | 30.80104 | 102.73219 | 27588 ft | 398 kts | 268° |
| 2026-04-22 11:53 | 30.80041 | 102.69990 | 27922 ft | 400 kts | 268° |
| 2026-04-22 11:53 | 30.79979 | 102.66751 | 28252 ft | 402 kts | 268° |
| 2026-04-22 11:54 | 30.79917 | 102.63493 | 28581 ft | 404 kts | 267° |
| 2026-04-22 11:54 | 30.79854 | 102.60216 | 28890 ft | 406 kts | 267° |
| 2026-04-22 11:54 | 30.79787 | 102.56925 | 29223 ft | 408 kts | 267° |
| 2026-04-22 11:54 | 30.79717 | 102.53616 | 29553 ft | 409 kts | 266° |
| 2026-04-22 11:55 | 30.79648 | 102.50299 | 29868 ft | 411 kts | 266° |
| 2026-04-22 11:55 | 30.79581 | 102.46971 | 30143 ft | 413 kts | 266° |
| 2026-04-22 11:55 | 30.79514 | 102.43622 | 30381 ft | 415 kts | 266° |
| 2026-04-22 11:55 | 30.79447 | 102.40266 | 30675 ft | 415 kts | 266° |
| 2026-04-22 11:56 | 30.79378 | 102.36910 | 31086 ft | 413 kts | 266° |
| 2026-04-22 11:56 | 30.79307 | 102.33589 | 31515 ft | 410 kts | 266° |
| 2026-04-22 11:56 | 30.79234 | 102.30279 | 31885 ft | 409 kts | 266° |
| 2026-04-22 11:56 | 30.79160 | 102.26983 | 32068 ft | 407 kts | 266° |
| 2026-04-22 11:57 | 30.79012 | 102.20500 | 32106 ft | 397 kts | 266° |
| 2026-04-22 11:57 | 30.78860 | 102.14087 | 32062 ft | 396 kts | 265° |
| 2026-04-22 11:58 | 30.78705 | 102.07722 | 32064 ft | 396 kts | 266° |
| 2026-04-22 11:58 | 30.78551 | 102.01341 | 32028 ft | 392 kts | 266° |
| 2026-04-22 11:59 | 30.78400 | 101.95029 | 32017 ft | 390 kts | 266° |
| 2026-04-22 11:59 | 30.78404 | 101.88726 | 31977 ft | 391 kts | 273° |
| 2026-04-22 12:00 | 30.78937 | 101.82432 | 31986 ft | 391 kts | 272° |
| 2026-04-22 12:00 | 30.79463 | 101.76143 | 31983 ft | 391 kts | 272° |
| 2026-04-22 12:01 | 30.79985 | 101.69866 | 31949 ft | 388 kts | 273° |
| 2026-04-22 12:01 | 30.80499 | 101.63580 | 31967 ft | 391 kts | 272° |
| 2026-04-22 12:02 | 30.81019 | 101.57306 | 31952 ft | 390 kts | 272° |
| 2026-04-22 12:02 | 30.81534 | 101.51002 | 31956 ft | 391 kts | 272° |
| 2026-04-22 12:03 | 30.82043 | 101.44717 | 31949 ft | 389 kts | 272° |
| 2026-04-22 12:03 | 30.82544 | 101.38440 | 31949 ft | 389 kts | 272° |
| 2026-04-22 12:04 | 30.83046 | 101.32172 | 31959 ft | 390 kts | 272° |
| 2026-04-22 12:04 | 30.83545 | 101.25880 | 31942 ft | 390 kts | 272° |
| 2026-04-22 12:05 | 30.84036 | 101.19617 | 31947 ft | 390 kts | 272° |
| 2026-04-22 12:05 | 30.84532 | 101.13325 | 31951 ft | 391 kts | 272° |
| 2026-04-22 12:06 | 30.85023 | 101.07020 | 31949 ft | 390 kts | 272° |
| 2026-04-22 12:06 | 30.85507 | 101.00739 | 31957 ft | 390 kts | 272° |
| 2026-04-22 12:07 | 30.85994 | 100.94445 | 31959 ft | 391 kts | 272° |
| 2026-04-22 12:07 | 30.86472 | 100.88151 | 31960 ft | 390 kts | 272° |
| 2026-04-22 12:08 | 30.86946 | 100.81856 | 31972 ft | 390 kts | 272° |
| 2026-04-22 12:08 | 30.87423 | 100.75567 | 31972 ft | 390 kts | 272° |
| 2026-04-22 12:09 | 30.87896 | 100.69270 | 31992 ft | 390 kts | 272° |
| 2026-04-22 12:09 | 30.88365 | 100.63017 | 31992 ft | 390 kts | 272° |
| 2026-04-22 12:10 | 30.88835 | 100.56698 | 31994 ft | 389 kts | 272° |
| 2026-04-22 12:10 | 30.89295 | 100.50464 | 32000 ft | 389 kts | 272° |
| 2026-04-22 12:11 | 30.89756 | 100.44198 | 32004 ft | 389 kts | 272° |
| 2026-04-22 12:11 | 30.90209 | 100.37931 | 32011 ft | 389 kts | 272° |
| 2026-04-22 12:12 | 30.90655 | 100.31660 | 32014 ft | 388 kts | 272° |
| 2026-04-22 12:12 | 30.91102 | 100.25403 | 32014 ft | 388 kts | 272° |
| 2026-04-22 12:13 | 30.91553 | 100.19142 | 32014 ft | 389 kts | 272° |
| 2026-04-22 12:13 | 30.92000 | 100.12868 | 32028 ft | 388 kts | 272° |
| 2026-04-22 12:14 | 30.92438 | 100.06605 | 32021 ft | 388 kts | 272° |
| 2026-04-22 12:14 | 30.92875 | 100.00328 | 32027 ft | 389 kts | 272° |
| 2026-04-22 12:15 | 30.93341 | 99.94058 | 32048 ft | 389 kts | 273° |
| 2026-04-22 12:15 | 30.93852 | 99.87780 | 32047 ft | 388 kts | 273° |
| 2026-04-22 12:16 | 30.94363 | 99.81517 | 32100 ft | 388 kts | 273° |
| 2026-04-22 12:16 | 30.94859 | 99.75285 | 32098 ft | 385 kts | 273° |
| 2026-04-22 12:17 | 30.95337 | 99.69076 | 32097 ft | 384 kts | 273° |
| 2026-04-22 12:17 | 30.95815 | 99.62894 | 32096 ft | 383 kts | 273° |
| 2026-04-22 12:18 | 30.96288 | 99.56717 | 32099 ft | 382 kts | 273° |
| 2026-04-22 12:18 | 30.96755 | 99.50548 | 32082 ft | 382 kts | 273° |
| 2026-04-22 12:19 | 30.97227 | 99.44375 | 32078 ft | 382 kts | 273° |
| 2026-04-22 12:19 | 30.97698 | 99.38214 | 32064 ft | 381 kts | 273° |
| 2026-04-22 12:20 | 30.98156 | 99.32089 | 32063 ft | 381 kts | 273° |
| 2026-04-22 12:20 | 30.98615 | 99.25942 | 32062 ft | 382 kts | 273° |
| 2026-04-22 12:21 | 30.99069 | 99.19778 | 32046 ft | 382 kts | 273° |
| 2026-04-22 12:21 | 30.99519 | 99.13614 | 32047 ft | 382 kts | 273° |
| 2026-04-22 12:22 | 30.99974 | 99.07439 | 32047 ft | 382 kts | 273° |
| 2026-04-22 12:22 | 31.00419 | 99.01280 | 32041 ft | 381 kts | 273° |
| 2026-04-22 12:23 | 31.00866 | 98.95115 | 32042 ft | 382 kts | 273° |
| 2026-04-22 12:23 | 31.01312 | 98.88957 | 32029 ft | 381 kts | 273° |
| 2026-04-22 12:24 | 31.01744 | 98.82805 | 32031 ft | 382 kts | 273° |
| 2026-04-22 12:24 | 31.02182 | 98.76638 | 32029 ft | 381 kts | 273° |
| 2026-04-22 12:25 | 31.02609 | 98.70484 | 32018 ft | 381 kts | 273° |
| 2026-04-22 12:25 | 31.03043 | 98.64375 | 32017 ft | 382 kts | 273° |
| 2026-04-22 12:26 | 31.03562 | 98.58173 | 32022 ft | 382 kts | 274° |
| 2026-04-22 12:26 | 31.04091 | 98.52039 | 32025 ft | 383 kts | 274° |
| 2026-04-22 12:27 | 31.04608 | 98.45863 | 32031 ft | 383 kts | 274° |
| 2026-04-22 12:27 | 31.05117 | 98.39691 | 32024 ft | 382 kts | 274° |
| 2026-04-22 12:28 | 31.05617 | 98.33507 | 32054 ft | 383 kts | 274° |
| 2026-04-22 12:28 | 31.06119 | 98.27338 | 32059 ft | 382 kts | 274° |
| 2026-04-22 12:29 | 31.06620 | 98.21181 | 32063 ft | 381 kts | 274° |
| 2026-04-22 12:29 | 31.07108 | 98.15042 | 32072 ft | 380 kts | 274° |
| 2026-04-22 12:30 | 31.07849 | 98.05823 | 32071 ft | 380 kts | 274° |
| 2026-04-22 12:31 | 31.08347 | 97.99688 | 32072 ft | 380 kts | 274° |
| 2026-04-22 12:31 | 31.08842 | 97.93542 | 32069 ft | 381 kts | 275° |
| 2026-04-22 12:32 | 31.09330 | 97.87378 | 32077 ft | 382 kts | 274° |
| 2026-04-22 12:32 | 31.10055 | 97.78162 | 32076 ft | 382 kts | 274° |
| 2026-04-22 12:33 | 31.10539 | 97.71993 | 32069 ft | 382 kts | 274° |
| 2026-04-22 12:33 | 31.11023 | 97.65790 | 32066 ft | 382 kts | 274° |
| 2026-04-22 12:34 | 31.11498 | 97.59661 | 32070 ft | 382 kts | 274° |
| 2026-04-22 12:34 | 31.11970 | 97.53483 | 32044 ft | 382 kts | 274° |
| 2026-04-22 12:35 | 31.12444 | 97.47299 | 32051 ft | 383 kts | 274° |
| 2026-04-22 12:35 | 31.12919 | 97.41092 | 32050 ft | 383 kts | 274° |
| 2026-04-22 12:36 | 31.13388 | 97.34880 | 32062 ft | 384 kts | 274° |
| 2026-04-22 12:36 | 31.13850 | 97.28676 | 32048 ft | 384 kts | 274° |
| 2026-04-22 12:37 | 31.14312 | 97.22453 | 32052 ft | 384 kts | 274° |
| 2026-04-22 12:37 | 31.14316 | 97.16240 | 32050 ft | 384 kts | 262° |
| 2026-04-22 12:38 | 31.13051 | 97.10174 | 32051 ft | 385 kts | 258° |
| 2026-04-22 12:38 | 31.11754 | 97.04106 | 32050 ft | 385 kts | 258° |
| 2026-04-22 12:39 | 31.09821 | 96.95003 | 32063 ft | 385 kts | 258° |
| 2026-04-22 12:40 | 31.08735 | 96.89952 | 32072 ft | 386 kts | 258° |
| 2026-04-22 12:40 | 31.07425 | 96.83884 | 32089 ft | 386 kts | 258° |
| 2026-04-22 12:41 | 31.06109 | 96.77818 | 32081 ft | 386 kts | 258° |
| 2026-04-22 12:41 | 31.04791 | 96.71731 | 32087 ft | 388 kts | 258° |
| 2026-04-22 12:42 | 31.03473 | 96.65641 | 32091 ft | 387 kts | 258° |
| 2026-04-22 12:42 | 31.02148 | 96.59562 | 32098 ft | 388 kts | 258° |
| 2026-04-22 12:43 | 31.00816 | 96.53467 | 32112 ft | 388 kts | 258° |
| 2026-04-22 12:43 | 30.99480 | 96.47381 | 32112 ft | 388 kts | 258° |
| 2026-04-22 12:44 | 30.98144 | 96.41282 | 32097 ft | 389 kts | 258° |
| 2026-04-22 12:44 | 30.96833 | 96.35146 | 32100 ft | 390 kts | 258° |
| 2026-04-22 12:45 | 30.95549 | 96.29006 | 32100 ft | 391 kts | 258° |
| 2026-04-22 12:45 | 30.94254 | 96.22853 | 32107 ft | 392 kts | 258° |
| 2026-04-22 12:46 | 30.92943 | 96.16688 | 32110 ft | 392 kts | 258° |
| 2026-04-22 12:46 | 30.91623 | 96.10526 | 32108 ft | 392 kts | 258° |
| 2026-04-22 12:47 | 30.90307 | 96.04360 | 32098 ft | 392 kts | 258° |
| 2026-04-22 12:47 | 30.88989 | 95.98189 | 32097 ft | 393 kts | 258° |
| 2026-04-22 12:48 | 30.87662 | 95.92015 | 32095 ft | 393 kts | 258° |
| 2026-04-22 12:48 | 30.86334 | 95.85837 | 32102 ft | 394 kts | 258° |
| 2026-04-22 12:49 | 30.84998 | 95.79660 | 32103 ft | 394 kts | 258° |
| 2026-04-22 12:49 | 30.83660 | 95.73479 | 32085 ft | 393 kts | 258° |
| 2026-04-22 12:50 | 30.82366 | 95.67309 | 32113 ft | 391 kts | 259° |
| 2026-04-22 12:50 | 30.81110 | 95.61154 | 32127 ft | 390 kts | 259° |
| 2026-04-22 12:51 | 30.79854 | 95.55028 | 32129 ft | 389 kts | 259° |
| 2026-04-22 12:51 | 30.78603 | 95.48961 | 32128 ft | 389 kts | 259° |
| 2026-04-22 12:52 | 30.77337 | 95.42867 | 32123 ft | 388 kts | 259° |
| 2026-04-22 12:52 | 30.76066 | 95.36774 | 32121 ft | 388 kts | 259° |
| 2026-04-22 12:53 | 30.74790 | 95.30682 | 32123 ft | 388 kts | 259° |
| 2026-04-22 12:53 | 30.73519 | 95.24587 | 32137 ft | 388 kts | 259° |
| 2026-04-22 12:54 | 30.72243 | 95.18490 | 32136 ft | 389 kts | 258° |
| 2026-04-22 12:54 | 30.70953 | 95.12390 | 32135 ft | 389 kts | 258° |
| 2026-04-22 12:55 | 30.69659 | 95.06298 | 32136 ft | 389 kts | 258° |
| 2026-04-22 12:55 | 30.68369 | 95.00197 | 32139 ft | 389 kts | 258° |
| 2026-04-22 12:56 | 30.67089 | 94.94095 | 32125 ft | 389 kts | 259° |
| 2026-04-22 12:56 | 30.65802 | 94.88008 | 32125 ft | 388 kts | 259° |
| 2026-04-22 12:57 | 30.64497 | 94.81903 | 32130 ft | 390 kts | 258° |
| 2026-04-22 12:57 | 30.63189 | 94.75790 | 32130 ft | 390 kts | 259° |
| 2026-04-22 12:58 | 30.61875 | 94.69674 | 32127 ft | 390 kts | 258° |
| 2026-04-22 12:58 | 30.60569 | 94.63567 | 32129 ft | 390 kts | 259° |
| 2026-04-22 12:59 | 30.59257 | 94.57460 | 32120 ft | 390 kts | 258° |
| 2026-04-22 12:59 | 30.57930 | 94.51339 | 32104 ft | 391 kts | 258° |
| 2026-04-22 13:00 | 30.56613 | 94.45219 | 32109 ft | 392 kts | 258° |
| 2026-04-22 13:00 | 30.55289 | 94.39076 | 32117 ft | 392 kts | 258° |
| 2026-04-22 13:01 | 30.53953 | 94.32941 | 32121 ft | 393 kts | 258° |
| 2026-04-22 13:01 | 30.52609 | 94.26802 | 32114 ft | 393 kts | 258° |
| 2026-04-22 13:02 | 30.51265 | 94.20666 | 32116 ft | 393 kts | 258° |
| 2026-04-22 13:02 | 30.49957 | 94.14504 | 32099 ft | 393 kts | 258° |
| 2026-04-22 13:03 | 30.48697 | 94.08328 | 32114 ft | 394 kts | 258° |
| 2026-04-22 13:03 | 30.47419 | 94.02147 | 32117 ft | 394 kts | 258° |
| 2026-04-22 13:04 | 30.46128 | 93.95962 | 32127 ft | 395 kts | 258° |
| 2026-04-22 13:04 | 30.44839 | 93.89768 | 32127 ft | 396 kts | 258° |
| 2026-04-22 13:05 | 30.43542 | 93.83580 | 32123 ft | 395 kts | 258° |
| 2026-04-22 13:05 | 30.42240 | 93.77395 | 32124 ft | 395 kts | 258° |
| 2026-04-22 13:06 | 30.40938 | 93.71238 | 32127 ft | 395 kts | 258° |
| 2026-04-22 13:06 | 30.39635 | 93.65063 | 32132 ft | 395 kts | 258° |
| 2026-04-22 13:07 | 30.37876 | 93.59044 | 32134 ft | 399 kts | 245° |
| 2026-04-22 13:07 | 30.34744 | 93.53681 | 32093 ft | 402 kts | 238° |
| 2026-04-22 13:08 | 30.31541 | 93.48365 | 32102 ft | 403 kts | 238° |
| 2026-04-22 13:08 | 30.28327 | 93.43017 | 32107 ft | 405 kts | 238° |
| 2026-04-22 13:09 | 30.25097 | 93.37670 | 31959 ft | 407 kts | 238° |
| 2026-04-22 13:09 | 30.23491 | 93.35022 | 31691 ft | 408 kts | 238° |
| 2026-04-22 13:09 | 30.21859 | 93.32338 | 31444 ft | 409 kts | 238° |
| 2026-04-22 13:09 | 30.20218 | 93.29642 | 31200 ft | 411 kts | 238° |
| 2026-04-22 13:10 | 30.18571 | 93.26933 | 30957 ft | 412 kts | 238° |
| 2026-04-22 13:10 | 30.16904 | 93.24182 | 30710 ft | 414 kts | 238° |
| 2026-04-22 13:10 | 30.15248 | 93.21451 | 30465 ft | 415 kts | 238° |
| 2026-04-22 13:10 | 30.13581 | 93.18713 | 30233 ft | 417 kts | 238° |
| 2026-04-22 13:11 | 30.11931 | 93.16010 | 29963 ft | 419 kts | 238° |
| 2026-04-22 13:11 | 30.10250 | 93.13255 | 29682 ft | 420 kts | 238° |
| 2026-04-22 13:11 | 30.08567 | 93.10495 | 29413 ft | 420 kts | 238° |
| 2026-04-22 13:11 | 30.06886 | 93.07739 | 29148 ft | 421 kts | 238° |
| 2026-04-22 13:12 | 30.05194 | 93.04967 | 28860 ft | 423 kts | 237° |
| 2026-04-22 13:12 | 30.03505 | 93.02200 | 28594 ft | 421 kts | 237° |
| 2026-04-22 13:12 | 30.01819 | 92.99438 | 28333 ft | 420 kts | 237° |
| 2026-04-22 13:12 | 30.00117 | 92.96661 | 28055 ft | 418 kts | 237° |
| 2026-04-22 13:13 | 29.98462 | 92.93962 | 27799 ft | 417 kts | 237° |
| 2026-04-22 13:13 | 29.96790 | 92.91230 | 27546 ft | 416 kts | 238° |
| 2026-04-22 13:13 | 29.95119 | 92.88502 | 27305 ft | 416 kts | 237° |
| 2026-04-22 13:13 | 29.93448 | 92.85781 | 27053 ft | 415 kts | 237° |
| 2026-04-22 13:14 | 29.91783 | 92.83067 | 26804 ft | 415 kts | 238° |
| 2026-04-22 13:14 | 29.90120 | 92.80356 | 26558 ft | 414 kts | 237° |
| 2026-04-22 13:14 | 29.88460 | 92.77653 | 26311 ft | 413 kts | 238° |
| 2026-04-22 13:14 | 29.86803 | 92.74954 | 26063 ft | 412 kts | 237° |
| 2026-04-22 13:15 | 29.85152 | 92.72268 | 25830 ft | 412 kts | 237° |
| 2026-04-22 13:15 | 29.83492 | 92.69577 | 25589 ft | 411 kts | 237° |
| 2026-04-22 13:15 | 29.81837 | 92.66900 | 25345 ft | 410 kts | 237° |
| 2026-04-22 13:15 | 29.80180 | 92.64216 | 25110 ft | 412 kts | 237° |
| 2026-04-22 13:16 | 29.78523 | 92.61526 | 24887 ft | 412 kts | 237° |
| 2026-04-22 13:16 | 29.76863 | 92.58831 | 24652 ft | 412 kts | 237° |
| 2026-04-22 13:16 | 29.75203 | 92.56145 | 24419 ft | 412 kts | 237° |
| 2026-04-22 13:16 | 29.73544 | 92.53460 | 24194 ft | 411 kts | 237° |
| 2026-04-22 13:17 | 29.71885 | 92.50781 | 23965 ft | 411 kts | 237° |
| 2026-04-22 13:17 | 29.70226 | 92.48110 | 23747 ft | 410 kts | 237° |
| 2026-04-22 13:17 | 29.68568 | 92.45443 | 23494 ft | 410 kts | 237° |
| 2026-04-22 13:17 | 29.66915 | 92.42779 | 23314 ft | 409 kts | 237° |
| 2026-04-22 13:18 | 29.65266 | 92.40117 | 23346 ft | 409 kts | 237° |
| 2026-04-22 13:18 | 29.63618 | 92.37451 | 23352 ft | 410 kts | 237° |
| 2026-04-22 13:18 | 29.61962 | 92.34775 | 23348 ft | 410 kts | 237° |
| 2026-04-22 13:18 | 29.60310 | 92.32113 | 23351 ft | 410 kts | 237° |
| 2026-04-22 13:19 | 29.58654 | 92.29450 | 23354 ft | 410 kts | 237° |
| 2026-04-22 13:19 | 29.56993 | 92.26778 | 23324 ft | 412 kts | 237° |
| 2026-04-22 13:19 | 29.55383 | 92.24191 | 23322 ft | 414 kts | 237° |
| 2026-04-22 13:19 | 29.53664 | 92.21435 | 23327 ft | 414 kts | 237° |
| 2026-04-22 13:20 | 29.51984 | 92.18745 | 23326 ft | 414 kts | 237° |
| 2026-04-22 13:20 | 29.50297 | 92.16048 | 23325 ft | 417 kts | 237° |
| 2026-04-22 13:20 | 29.48604 | 92.13340 | 23318 ft | 418 kts | 236° |
| 2026-04-22 13:20 | 29.46911 | 92.10630 | 23318 ft | 418 kts | 237° |
| 2026-04-22 13:21 | 29.45215 | 92.07910 | 23302 ft | 419 kts | 237° |
| 2026-04-22 13:21 | 29.44096 | 92.06118 | 23296 ft | 418 kts | 237° |
| 2026-04-22 13:21 | 29.42402 | 92.03413 | 23296 ft | 411 kts | 236° |
| 2026-04-22 13:21 | 29.40218 | 91.99944 | 23296 ft | 390 kts | 237° |
| 2026-04-22 13:22 | 29.38662 | 91.97476 | 23299 ft | 374 kts | 237° |
| 2026-04-22 13:22 | 29.37669 | 91.95896 | 23292 ft | 365 kts | 237° |
| 2026-04-22 13:22 | 29.36213 | 91.93578 | 23294 ft | 350 kts | 237° |
| 2026-04-22 13:22 | 29.34824 | 91.91364 | 23278 ft | 335 kts | 237° |
| 2026-04-22 13:23 | 29.33490 | 91.89237 | 23272 ft | 320 kts | 237° |
| 2026-04-22 13:23 | 29.32222 | 91.87221 | 23281 ft | 305 kts | 237° |
| 2026-04-22 13:23 | 29.31008 | 91.85290 | 23277 ft | 292 kts | 237° |
| 2026-04-22 13:23 | 29.29838 | 91.83431 | 23278 ft | 286 kts | 237° |
| 2026-04-22 13:24 | 29.28681 | 91.81589 | 23276 ft | 284 kts | 237° |
| 2026-04-22 13:24 | 29.27578 | 91.79721 | 23276 ft | 282 kts | 243° |
| 2026-04-22 13:24 | 29.26727 | 91.77713 | 23277 ft | 279 kts | 252° |
| 2026-04-22 13:24 | 29.26146 | 91.75597 | 23260 ft | 278 kts | 260° |
| 2026-04-22 13:25 | 29.25839 | 91.73436 | 23241 ft | 274 kts | 268° |
| 2026-04-22 13:25 | 29.25798 | 91.71271 | 22989 ft | 271 kts | 276° |
| 2026-04-22 13:25 | 29.25931 | 91.69125 | 22694 ft | 269 kts | 277° |
| 2026-04-22 13:25 | 29.26061 | 91.66999 | 22394 ft | 267 kts | 277° |
| 2026-04-22 13:26 | 29.26187 | 91.64882 | 22100 ft | 266 kts | 277° |
| 2026-04-22 13:26 | 29.26310 | 91.62774 | 21807 ft | 264 kts | 277° |
| 2026-04-22 13:26 | 29.26429 | 91.60696 | 21443 ft | 258 kts | 277° |
| 2026-04-22 13:26 | 29.26543 | 91.58694 | 21186 ft | 247 kts | 277° |
| 2026-04-22 13:27 | 29.26650 | 91.56782 | 20953 ft | 234 kts | 277° |
| 2026-04-22 13:27 | 29.26751 | 91.54966 | 20688 ft | 224 kts | 277° |
| 2026-04-22 13:27 | 29.26852 | 91.53198 | 20240 ft | 224 kts | 277° |
| 2026-04-22 13:27 | 29.26960 | 91.51391 | 19641 ft | 230 kts | 277° |
| 2026-04-22 13:28 | 29.27071 | 91.49541 | 19060 ft | 235 kts | 277° |
| 2026-04-22 13:28 | 29.27254 | 91.47677 | 18486 ft | 235 kts | 285° |
| 2026-04-22 13:28 | 29.27727 | 91.45973 | 18286 ft | 214 kts | 296° |
| 2026-04-22 13:28 | 29.28303 | 91.44442 | 18245 ft | 205 kts | 296° |
| 2026-04-22 13:29 | 29.28844 | 91.42974 | 18249 ft | 196 kts | 296° |
| 2026-04-22 13:29 | 29.29362 | 91.41570 | 18224 ft | 184 kts | 297° |
| 2026-04-22 13:29 | 29.29854 | 91.40236 | 18204 ft | 181 kts | 297° |
| 2026-04-22 13:29 | 29.30343 | 91.38913 | 18198 ft | 180 kts | 297° |
| 2026-04-22 13:30 | 29.30686 | 91.37523 | 18195 ft | 183 kts | 284° |
| 2026-04-22 13:30 | 29.30753 | 91.36071 | 17984 ft | 186 kts | 273° |
| 2026-04-22 13:30 | 29.30719 | 91.34599 | 17729 ft | 184 kts | 273° |
| 2026-04-22 13:30 | 29.30695 | 91.33117 | 17467 ft | 184 kts | 274° |
| 2026-04-22 13:31 | 29.30677 | 91.31659 | 17294 ft | 183 kts | 273° |
| 2026-04-22 13:31 | 29.30659 | 91.30214 | 17248 ft | 183 kts | 273° |
| 2026-04-22 13:31 | 29.30642 | 91.28732 | 17203 ft | 184 kts | 273° |
| 2026-04-22 13:31 | 29.30625 | 91.27286 | 17023 ft | 183 kts | 273° |
| 2026-04-22 13:32 | 29.30607 | 91.25826 | 16800 ft | 183 kts | 273° |
| 2026-04-22 13:32 | 29.30590 | 91.24371 | 16568 ft | 182 kts | 272° |
| 2026-04-22 13:32 | 29.30572 | 91.22921 | 16334 ft | 182 kts | 272° |
| 2026-04-22 13:32 | 29.30555 | 91.21477 | 16103 ft | 181 kts | 272° |
| 2026-04-22 13:33 | 29.30537 | 91.20035 | 15873 ft | 181 kts | 272° |
| 2026-04-22 13:33 | 29.30519 | 91.18596 | 15644 ft | 180 kts | 272° |
| 2026-04-22 13:33 | 29.30501 | 91.17163 | 15419 ft | 180 kts | 272° |
| 2026-04-22 13:33 | 29.30483 | 91.15731 | 15194 ft | 179 kts | 271° |
| 2026-04-22 13:34 | 29.30465 | 91.14304 | 14968 ft | 179 kts | 272° |
| 2026-04-22 13:34 | 29.30447 | 91.12874 | 14748 ft | 180 kts | 271° |
| 2026-04-22 13:34 | 29.30428 | 91.11443 | 14530 ft | 180 kts | 272° |
| 2026-04-22 13:34 | 29.30409 | 91.10013 | 14309 ft | 180 kts | 271° |
| 2026-04-22 13:35 | 29.30391 | 91.08584 | 14099 ft | 179 kts | 271° |
| 2026-04-22 13:35 | 29.30372 | 91.07157 | 13885 ft | 179 kts | 272° |
| 2026-04-22 13:35 | 29.30352 | 91.05735 | 13710 ft | 178 kts | 271° |
| 2026-04-22 13:35 | 29.30333 | 91.04322 | 13542 ft | 177 kts | 271° |
| 2026-04-22 13:36 | 29.30314 | 91.02915 | 13377 ft | 176 kts | 270° |
| 2026-04-22 13:36 | 29.30295 | 91.01514 | 13214 ft | 175 kts | 269° |
| 2026-04-22 13:36 | 29.30276 | 91.00124 | 12976 ft | 174 kts | 269° |
| 2026-04-22 13:36 | 29.30257 | 90.98738 | 12699 ft | 173 kts | 269° |
| 2026-04-22 13:37 | 29.30237 | 90.97358 | 12402 ft | 173 kts | 270° |
| 2026-04-22 13:37 | 29.30218 | 90.95983 | 12114 ft | 173 kts | 270° |
| 2026-04-22 13:37 | 29.30203 | 90.94605 | 11875 ft | 173 kts | 271° |
| 2026-04-22 13:37 | 29.30180 | 90.93235 | 11657 ft | 172 kts | 270° |
| 2026-04-22 13:38 | 29.30136 | 90.91884 | 11517 ft | 161 kts | 272° |
| 2026-04-22 13:38 | 29.30139 | 90.90403 | 11534 ft | 51 kts | 268° |
| 2026-04-22 13:38 | 29.30068 | 90.90125 | 11534 ft | 33 kts | 243° |
| 2026-04-22 13:39 | 29.29992 | 90.89943 | 11539 ft | 24 kts | 242° |
| 2026-04-22 13:39 | 29.29972 | 90.89752 | 11539 ft | 23 kts | 268° |
| 2026-04-22 13:39 | 29.29969 | 90.89606 | 11539 ft | 20 kts | 268° |
| 2026-04-22 13:39 | 29.29969 | 90.89491 | 11539 ft | 9 kts | 270° |
| 2026-04-22 13:40 | 29.29968 | 90.89414 | 11543 ft | 10 kts | 270° |
| 2026-04-22 13:40 | 29.29968 | 90.89327 | 11544 ft | 12 kts | 269° |
| 2026-04-22 13:40 | 29.29966 | 90.89229 | 11538 ft | 13 kts | 267° |
| 2026-04-22 13:40 | 29.29962 | 90.89116 | 11544 ft | 15 kts | 269° |
| 2026-04-22 13:41 | 29.29961 | 90.88988 | 11540 ft | 17 kts | 270° |
| 2026-04-22 13:41 | 29.29955 | 90.88852 | 11541 ft | 18 kts | 258° |
| 2026-04-22 13:41 | 29.29871 | 90.88746 | 11540 ft | 19 kts | 224° |
| 2026-04-22 13:41 | 29.29747 | 90.88698 | 11536 ft | 20 kts | 169° |
| 2026-04-22 13:42 | 29.29602 | 90.88708 | 11535 ft | 22 kts | 177° |
| 2026-04-22 13:42 | 29.29502 | 90.88810 | 11532 ft | 22 kts | 101° |
| 2026-04-22 13:42 | 29.29505 | 90.88990 | 11540 ft | 23 kts | 88° |
| 2026-04-22 13:42 | 29.29510 | 90.89160 | 11539 ft | 22 kts | 89° |
| 2026-04-22 13:43 | 29.29457 | 90.89318 | 11539 ft | 21 kts | 147° |
| 2026-04-22 13:43 | 29.29381 | 90.89369 | 11535 ft | 6 kts | 186° |
| 2026-04-22 13:43 | 29.29375 | 90.89370 | 11536 ft | 0 kts | 173° |